Flight Track Log - Related Links

Times and Time Zones

All times are in EDT time to prevent confusion due to time zone crossing. See the N449ND flight status page for this flight to view local times or setup timezone preferences in your user account.

Time Position Orientation Groundspeed Altitude Reporting Facility
EDT Latitude Longitude Course Direction KTS MPH feet Rate Location/Type
Tue 09:46:59 PM 27.4094 -80.3114 152° Southeast 88 101 2,000  Level Miami Center
Tue 09:48:00 PM 27.3994 -80.3386 248° West 105 121 2,500 541 Climbing Miami Center
Tue 09:49:01 PM 27.3994 -80.3686 270° West 94 108 3,100 541 Climbing Miami Center
Tue 09:50:02 PM 27.3956 -80.3944 260° West 89 102 3,600 443 Climbing Miami Center
Tue 09:51:03 PM 27.3928 -80.4247 264° West 90 104 4,000 197 Climbing Miami Center
Tue 09:52:00 PM 27.4975 -80.3726 152° Southeast  Level Estimated
Tue 09:52:04 PM 27.4194 -80.4353 341° North 96 110 4,000  Level Miami Center
Tue 09:53:04 PM 27.4456 -80.4417 348° North 97 112 4,000  Level Miami Center
Tue 09:54:05 PM 27.4731 -80.4483 348° North 97 112 4,000  Level Miami Center
Tue 09:55:06 PM 27.5000 -80.4536 350° North 96 110 4,000  Level Miami Center
Tue 09:56:07 PM 27.5242 -80.4575 352° North 95 109 4,000  Level Miami Center
Tue 09:57:08 PM 27.5511 -80.4617 352° North 94 108 4,000 -148 Level Miami Center
Tue 09:58:09 PM 27.5586 -80.4878 288° West 111 128 3,700 -492 Descending Miami Center
Tue 09:59:10 PM 27.5647 -80.5236 281° West 110 127 3,000 -341 Descending Miami Center
Tue 10:00:12 PM 27.5761 -80.5564 291° West 109 125 3,000  Level Miami Center
Tue 10:01:14 PM 27.5942 -80.5811 309° West 109 125 3,000  Level Miami Center
Tue 10:02:14 PM 27.6169 -80.6050 317° Northwest 109 125 3,000  Level Miami Center
Tue 10:03:13 PM 27.6450 -80.6153 342° North 102 117 3,000  Level Miami Center
Tue 10:04:17 PM 27.6708 -80.6208 349° North 101 116 3,000  Level Miami Center
Tue 10:05:17 PM 27.6981 -80.6189 North 94 108 3,000  Level Miami Center
Tue 10:06:18 PM 27.7192 -80.6086 23° Northeast 92 106 3,000  Level Miami Center

Login

Don't have an account? Register now (free) for customized features, flight alerts, and more!